Terminal Aerodrome Forecast
Issued by NWS

Home | Current Version | Previous Version | Text Only | Print | Product List | Glossary On
Versions: 1 2 3 4 5 6 7 8 9 10 11 12 13 14 15 16 17 18 19 20 21 22 23 24
000
FTUS41 KBGM 182300
TAFRME
TAF
KRME 182327Z 1900/1924 29008KT P6SM OVC015
      TEMPO 1904/1908 2SM -FZDZSN BR OVC008
     FM190800 29005KT 2SM BR OVC010
     FM191500 29008KT P6SM OVC015=

USA.gov is the U.S. government's official web portal to all federal, state and local government web resources and services.